sensor_id;sensor_type;location;lat;lon;timestamp;temperature;humidity
53310;DHT22;39197;53.200;5.792;2022-11-15T00:01:22;7.80;99.90
53310;DHT22;39197;53.200;5.792;2022-11-15T00:03:50;7.80;99.90
53310;DHT22;39197;53.200;5.792;2022-11-15T00:06:16;7.70;99.90
53310;DHT22;39197;53.200;5.792;2022-11-15T00:08:42;7.70;99.90
53310;DHT22;39197;53.200;5.792;2022-11-15T00:11:10;7.70;99.90
53310;DHT22;39197;53.200;5.792;2022-11-15T00:13:36;7.80;99.90
53310;DHT22;39197;53.200;5.792;2022-11-15T00:16:02;7.70;99.90
53310;DHT22;39197;53.200;5.792;2022-11-15T00:18:28;7.70;99.90
53310;DHT22;39197;53.200;5.792;2022-11-15T00:20:55;7.80;99.90
53310;DHT22;39197;53.200;5.792;2022-11-15T00:23:20;7.70;99.90
53310;DHT22;39197;53.200;5.792;2022-11-15T00:25:46;7.70;99.90
53310;DHT22;39197;53.200;5.792;2022-11-15T00:28:12;7.70;99.90
53310;DHT22;39197;53.200;5.792;2022-11-15T00:30:38;7.70;99.90
53310;DHT22;39197;53.200;5.792;2022-11-15T00:33:04;7.70;99.90
53310;DHT22;39197;53.200;5.792;2022-11-15T00:35:34;7.70;99.90
53310;DHT22;39197;53.200;5.792;2022-11-15T00:38:00;7.70;99.90
53310;DHT22;39197;53.200;5.792;2022-11-15T00:40:26;7.70;99.90
53310;DHT22;39197;53.200;5.792;2022-11-15T00:42:52;7.70;99.90
53310;DHT22;39197;53.200;5.792;2022-11-15T00:45:17;7.60;99.90
53310;DHT22;39197;53.200;5.792;2022-11-15T00:47:46;7.60;99.90
53310;DHT22;39197;53.200;5.792;2022-11-15T00:50:12;7.60;99.90
53310;DHT22;39197;53.200;5.792;2022-11-15T00:52:37;7.60;99.90
53310;DHT22;39197;53.200;5.792;2022-11-15T00:55:03;7.50;99.90
53310;DHT22;39197;53.200;5.792;2022-11-15T00:57:29;7.50;99.90
53310;DHT22;39197;53.200;5.792;2022-11-15T00:59:54;7.50;99.90
53310;DHT22;39197;53.200;5.792;2022-11-15T01:02:20;7.40;99.90
53310;DHT22;39197;53.200;5.792;2022-11-15T01:04:45;7.40;99.90
53310;DHT22;39197;53.200;5.792;2022-11-15T01:07:11;7.30;99.90
53310;DHT22;39197;53.200;5.792;2022-11-15T01:09:37;8.10;99.90
53310;DHT22;39197;53.200;5.792;2022-11-15T01:12:02;7.30;99.90
53310;DHT22;39197;53.200;5.792;2022-11-15T01:14:28;7.20;99.90
53310;DHT22;39197;53.200;5.792;2022-11-15T01:16:54;7.20;99.90
53310;DHT22;39197;53.200;5.792;2022-11-15T01:19:19;7.20;99.90
53310;DHT22;39197;53.200;5.792;2022-11-15T01:21:45;7.20;99.90
53310;DHT22;39197;53.200;5.792;2022-11-15T01:24:12;7.20;99.90
53310;DHT22;39197;53.200;5.792;2022-11-15T01:26:38;7.10;99.90
53310;DHT22;39197;53.200;5.792;2022-11-15T01:29:04;7.10;99.90
53310;DHT22;39197;53.200;5.792;2022-11-15T01:31:29;7.10;99.90
53310;DHT22;39197;53.200;5.792;2022-11-15T01:33:55;7.10;99.90
53310;DHT22;39197;53.200;5.792;2022-11-15T01:36:21;7.10;99.90
53310;DHT22;39197;53.200;5.792;2022-11-15T01:38:53;7.10;99.90
53310;DHT22;39197;53.200;5.792;2022-11-15T01:41:31;7.00;99.90
53310;DHT22;39197;53.200;5.792;2022-11-15T01:46:45;6.90;99.90
53310;DHT22;39197;53.200;5.792;2022-11-15T01:49:17;6.80;99.90
53310;DHT22;39197;53.200;5.792;2022-11-15T01:51:44;6.70;99.90
53310;DHT22;39197;53.200;5.792;2022-11-15T01:54:14;6.60;99.90
53310;DHT22;39197;53.200;5.792;2022-11-15T01:56:45;6.60;99.90
53310;DHT22;39197;53.200;5.792;2022-11-15T01:59:11;6.50;99.90
53310;DHT22;39197;53.200;5.792;2022-11-15T02:01:37;6.50;99.90
53310;DHT22;39197;53.200;5.792;2022-11-15T02:04:38;6.40;99.90
53310;DHT22;39197;53.200;5.792;2022-11-15T02:07:06;6.40;99.90
53310;DHT22;39197;53.200;5.792;2022-11-15T02:09:36;6.40;99.90
53310;DHT22;39197;53.200;5.792;2022-11-15T02:12:02;6.30;99.90
53310;DHT22;39197;53.200;5.792;2022-11-15T02:14:29;6.30;99.90
53310;DHT22;39197;53.200;5.792;2022-11-15T02:17:22;6.30;99.90
53310;DHT22;39197;53.200;5.792;2022-11-15T02:22:37;6.10;99.90
53310;DHT22;39197;53.200;5.792;2022-11-15T02:28:14;6.10;99.90
53310;DHT22;39197;53.200;5.792;2022-11-15T02:30:48;6.10;99.90
53310;DHT22;39197;53.200;5.792;2022-11-15T02:33:35;6.10;99.90
53310;DHT22;39197;53.200;5.792;2022-11-15T02:36:12;6.10;99.90
53310;DHT22;39197;53.200;5.792;2022-11-15T02:38:52;6.10;99.90
53310;DHT22;39197;53.200;5.792;2022-11-15T02:41:25;6.10;99.90
53310;DHT22;39197;53.200;5.792;2022-11-15T02:44:04;6.10;99.90
53310;DHT22;39197;53.200;5.792;2022-11-15T02:46:49;6.10;99.90
53310;DHT22;39197;53.200;5.792;2022-11-15T02:49:35;6.20;99.90
53310;DHT22;39197;53.200;5.792;2022-11-15T02:52:01;6.20;99.90
53310;DHT22;39197;53.200;5.792;2022-11-15T02:54:30;6.20;99.90
53310;DHT22;39197;53.200;5.792;2022-11-15T02:57:02;6.20;99.90
53310;DHT22;39197;53.200;5.792;2022-11-15T03:11:19;6.20;99.90
53310;DHT22;39197;53.200;5.792;2022-11-15T03:14:19;6.20;99.90
53310;DHT22;39197;53.200;5.792;2022-11-15T03:19:45;6.30;99.90
53310;DHT22;39197;53.200;5.792;2022-11-15T03:22:15;6.20;99.90
53310;DHT22;39197;53.200;5.792;2022-11-15T03:24:43;6.20;99.90
53310;DHT22;39197;53.200;5.792;2022-11-15T03:27:12;6.30;99.90
53310;DHT22;39197;53.200;5.792;2022-11-15T03:29:45;6.30;99.90
53310;DHT22;39197;53.200;5.792;2022-11-15T03:32:16;6.30;99.90
53310;DHT22;39197;53.200;5.792;2022-11-15T03:34:47;6.30;99.90
53310;DHT22;39197;53.200;5.792;2022-11-15T03:37:15;6.30;99.90
53310;DHT22;39197;53.200;5.792;2022-11-15T03:39:42;6.30;99.90
53310;DHT22;39197;53.200;5.792;2022-11-15T03:42:36;6.30;99.90
53310;DHT22;39197;53.200;5.792;2022-11-15T03:45:17;6.30;99.90
53310;DHT22;39197;53.200;5.792;2022-11-15T03:47:51;6.30;99.90
53310;DHT22;39197;53.200;5.792;2022-11-15T03:50:20;6.30;99.90
53310;DHT22;39197;53.200;5.792;2022-11-15T03:52:47;6.30;99.90
53310;DHT22;39197;53.200;5.792;2022-11-15T03:55:16;6.40;99.90
53310;DHT22;39197;53.200;5.792;2022-11-15T03:57:42;6.40;99.90
53310;DHT22;39197;53.200;5.792;2022-11-15T04:00:09;6.40;99.90
53310;DHT22;39197;53.200;5.792;2022-11-15T04:02:34;6.40;99.90
53310;DHT22;39197;53.200;5.792;2022-11-15T04:05:00;6.50;99.90
53310;DHT22;39197;53.200;5.792;2022-11-15T04:07:25;6.40;99.90
53310;DHT22;39197;53.200;5.792;2022-11-15T04:09:51;6.50;99.90
53310;DHT22;39197;53.200;5.792;2022-11-15T04:12:33;6.50;99.90
53310;DHT22;39197;53.200;5.792;2022-11-15T04:15:10;6.60;99.90
53310;DHT22;39197;53.200;5.792;2022-11-15T04:17:53;6.60;99.90
53310;DHT22;39197;53.200;5.792;2022-11-15T04:20:21;6.60;99.90
53310;DHT22;39197;53.200;5.792;2022-11-15T04:23:14;6.60;99.90
53310;DHT22;39197;53.200;5.792;2022-11-15T04:26:00;6.60;99.90
53310;DHT22;39197;53.200;5.792;2022-11-15T04:28:27;6.60;99.90
53310;DHT22;39197;53.200;5.792;2022-11-15T04:30:52;6.70;99.90
53310;DHT22;39197;53.200;5.792;2022-11-15T04:33:18;6.70;99.90
53310;DHT22;39197;53.200;5.792;2022-11-15T04:35:44;6.70;99.90
53310;DHT22;39197;53.200;5.792;2022-11-15T04:38:29;6.80;99.90
53310;DHT22;39197;53.200;5.792;2022-11-15T04:40:55;6.80;99.90
53310;DHT22;39197;53.200;5.792;2022-11-15T04:43:20;6.80;99.90
53310;DHT22;39197;53.200;5.792;2022-11-15T04:45:46;6.90;99.90
53310;DHT22;39197;53.200;5.792;2022-11-15T04:48:11;6.90;99.90
53310;DHT22;39197;53.200;5.792;2022-11-15T04:50:37;6.90;99.90
53310;DHT22;39197;53.200;5.792;2022-11-15T04:53:03;6.90;99.90
53310;DHT22;39197;53.200;5.792;2022-11-15T04:55:28;7.00;99.90
53310;DHT22;39197;53.200;5.792;2022-11-15T04:57:58;7.00;99.90
53310;DHT22;39197;53.200;5.792;2022-11-15T05:00:24;7.10;99.90
53310;DHT22;39197;53.200;5.792;2022-11-15T05:02:50;7.10;99.90
53310;DHT22;39197;53.200;5.792;2022-11-15T05:05:34;7.10;99.90
53310;DHT22;39197;53.200;5.792;2022-11-15T05:08:00;7.20;99.90
53310;DHT22;39197;53.200;5.792;2022-11-15T05:10:25;7.20;99.90
53310;DHT22;39197;53.200;5.792;2022-11-15T05:12:51;7.20;99.90
53310;DHT22;39197;53.200;5.792;2022-11-15T05:15:16;7.30;99.90
53310;DHT22;39197;53.200;5.792;2022-11-15T05:17:42;7.30;99.90
53310;DHT22;39197;53.200;5.792;2022-11-15T05:20:08;7.40;99.90
53310;DHT22;39197;53.200;5.792;2022-11-15T05:22:34;7.40;99.90
53310;DHT22;39197;53.200;5.792;2022-11-15T05:24:59;7.40;99.90
53310;DHT22;39197;53.200;5.792;2022-11-15T05:27:25;7.50;99.90
53310;DHT22;39197;53.200;5.792;2022-11-15T05:29:50;7.50;99.90
53310;DHT22;39197;53.200;5.792;2022-11-15T05:32:16;7.50;99.90
53310;DHT22;39197;53.200;5.792;2022-11-15T05:34:43;7.60;99.90
53310;DHT22;39197;53.200;5.792;2022-11-15T05:37:09;7.60;99.90
53310;DHT22;39197;53.200;5.792;2022-11-15T05:39:35;7.70;99.90
53310;DHT22;39197;53.200;5.792;2022-11-15T05:42:08;7.70;99.90
53310;DHT22;39197;53.200;5.792;2022-11-15T05:44:36;7.80;99.90
53310;DHT22;39197;53.200;5.792;2022-11-15T05:47:03;7.80;99.90
53310;DHT22;39197;53.200;5.792;2022-11-15T05:49:33;7.80;99.90
53310;DHT22;39197;53.200;5.792;2022-11-15T05:52:03;7.90;99.90
53310;DHT22;39197;53.200;5.792;2022-11-15T05:54:31;7.90;99.90
53310;DHT22;39197;53.200;5.792;2022-11-15T05:56:57;8.00;99.90
53310;DHT22;39197;53.200;5.792;2022-11-15T05:59:23;8.00;99.90
53310;DHT22;39197;53.200;5.792;2022-11-15T06:01:49;8.10;99.90
53310;DHT22;39197;53.200;5.792;2022-11-15T06:04:14;8.10;99.90
53310;DHT22;39197;53.200;5.792;2022-11-15T06:06:40;8.20;99.90
53310;DHT22;39197;53.200;5.792;2022-11-15T06:09:06;8.20;99.90
53310;DHT22;39197;53.200;5.792;2022-11-15T06:11:31;8.20;99.90
53310;DHT22;39197;53.200;5.792;2022-11-15T06:13:57;8.40;99.90
53310;DHT22;39197;53.200;5.792;2022-11-15T06:16:22;8.30;99.90
53310;DHT22;39197;53.200;5.792;2022-11-15T06:18:48;8.30;99.90
53310;DHT22;39197;53.200;5.792;2022-11-15T06:21:13;8.40;99.90
53310;DHT22;39197;53.200;5.792;2022-11-15T06:23:39;8.40;99.90
53310;DHT22;39197;53.200;5.792;2022-11-15T06:26:05;8.50;99.90
53310;DHT22;39197;53.200;5.792;2022-11-15T06:28:33;8.50;99.90
53310;DHT22;39197;53.200;5.792;2022-11-15T06:31:09;8.60;99.90
53310;DHT22;39197;53.200;5.792;2022-11-15T06:33:36;8.60;99.90
53310;DHT22;39197;53.200;5.792;2022-11-15T06:36:03;8.60;99.90
53310;DHT22;39197;53.200;5.792;2022-11-15T06:38:29;8.70;99.90
53310;DHT22;39197;53.200;5.792;2022-11-15T06:41:00;8.70;99.90
53310;DHT22;39197;53.200;5.792;2022-11-15T06:43:26;8.70;99.90
53310;DHT22;39197;53.200;5.792;2022-11-15T06:45:51;8.80;99.90
53310;DHT22;39197;53.200;5.792;2022-11-15T06:48:17;8.80;99.90
53310;DHT22;39197;53.200;5.792;2022-11-15T06:50:42;8.90;99.90
53310;DHT22;39197;53.200;5.792;2022-11-15T06:53:08;8.90;99.90
53310;DHT22;39197;53.200;5.792;2022-11-15T06:55:33;8.90;99.90
53310;DHT22;39197;53.200;5.792;2022-11-15T06:57:59;8.90;99.90
53310;DHT22;39197;53.200;5.792;2022-11-15T07:00:24;8.90;99.90
53310;DHT22;39197;53.200;5.792;2022-11-15T07:02:50;8.90;99.90
53310;DHT22;39197;53.200;5.792;2022-11-15T07:05:16;9.00;99.90
53310;DHT22;39197;53.200;5.792;2022-11-15T07:07:41;9.00;99.90
53310;DHT22;39197;53.200;5.792;2022-11-15T07:10:07;9.00;99.90
53310;DHT22;39197;53.200;5.792;2022-11-15T07:12:34;9.10;99.90
53310;DHT22;39197;53.200;5.792;2022-11-15T07:14:59;9.10;99.90
53310;DHT22;39197;53.200;5.792;2022-11-15T07:17:25;9.10;99.90
53310;DHT22;39197;53.200;5.792;2022-11-15T07:19:50;9.10;99.90
53310;DHT22;39197;53.200;5.792;2022-11-15T07:22:16;9.10;99.90
53310;DHT22;39197;53.200;5.792;2022-11-15T07:24:41;9.20;99.90
53310;DHT22;39197;53.200;5.792;2022-11-15T07:27:07;9.20;99.90
53310;DHT22;39197;53.200;5.792;2022-11-15T07:29:32;9.20;99.90
53310;DHT22;39197;53.200;5.792;2022-11-15T07:31:58;9.30;99.90
53310;DHT22;39197;53.200;5.792;2022-11-15T07:34:24;9.30;99.90
53310;DHT22;39197;53.200;5.792;2022-11-15T07:36:50;9.40;99.90
53310;DHT22;39197;53.200;5.792;2022-11-15T07:39:15;9.40;99.90
53310;DHT22;39197;53.200;5.792;2022-11-15T07:41:41;9.40;99.90
53310;DHT22;39197;53.200;5.792;2022-11-15T07:44:06;9.60;99.90
53310;DHT22;39197;53.200;5.792;2022-11-15T07:46:32;9.50;99.90
53310;DHT22;39197;53.200;5.792;2022-11-15T07:48:57;9.50;99.90
53310;DHT22;39197;53.200;5.792;2022-11-15T07:51:23;9.50;99.90
53310;DHT22;39197;53.200;5.792;2022-11-15T07:53:49;9.60;99.90
53310;DHT22;39197;53.200;5.792;2022-11-15T07:56:14;9.60;99.90
53310;DHT22;39197;53.200;5.792;2022-11-15T07:58:40;9.60;99.90
53310;DHT22;39197;53.200;5.792;2022-11-15T08:01:10;9.70;99.90
53310;DHT22;39197;53.200;5.792;2022-11-15T08:03:36;9.70;99.90
53310;DHT22;39197;53.200;5.792;2022-11-15T08:06:02;9.70;99.90
53310;DHT22;39197;53.200;5.792;2022-11-15T08:08:28;9.80;99.90
53310;DHT22;39197;53.200;5.792;2022-11-15T08:10:53;9.80;99.90
53310;DHT22;39197;53.200;5.792;2022-11-15T08:13:19;9.80;99.90
53310;DHT22;39197;53.200;5.792;2022-11-15T08:15:45;9.80;99.90
53310;DHT22;39197;53.200;5.792;2022-11-15T08:18:15;9.90;99.90
53310;DHT22;39197;53.200;5.792;2022-11-15T08:20:41;9.90;99.90
53310;DHT22;39197;53.200;5.792;2022-11-15T08:23:08;9.90;99.90
53310;DHT22;39197;53.200;5.792;2022-11-15T08:25:35;10.00;99.90
53310;DHT22;39197;53.200;5.792;2022-11-15T08:28:03;9.90;99.90
53310;DHT22;39197;53.200;5.792;2022-11-15T08:30:29;10.00;99.90
53310;DHT22;39197;53.200;5.792;2022-11-15T08:32:57;10.00;99.90
53310;DHT22;39197;53.200;5.792;2022-11-15T08:35:24;10.00;99.90
53310;DHT22;39197;53.200;5.792;2022-11-15T08:37:49;10.10;99.90
53310;DHT22;39197;53.200;5.792;2022-11-15T08:40:15;10.10;99.90
53310;DHT22;39197;53.200;5.792;2022-11-15T08:42:41;10.10;99.90
53310;DHT22;39197;53.200;5.792;2022-11-15T08:45:08;10.10;99.90
53310;DHT22;39197;53.200;5.792;2022-11-15T08:47:34;10.20;99.90
53310;DHT22;39197;53.200;5.792;2022-11-15T08:50:00;10.30;99.90
53310;DHT22;39197;53.200;5.792;2022-11-15T08:52:25;10.30;99.90
53310;DHT22;39197;53.200;5.792;2022-11-15T08:54:51;10.30;99.90
53310;DHT22;39197;53.200;5.792;2022-11-15T08:57:17;10.40;99.90
53310;DHT22;39197;53.200;5.792;2022-11-15T08:59:42;10.50;99.90
53310;DHT22;39197;53.200;5.792;2022-11-15T09:02:13;10.50;99.90
53310;DHT22;39197;53.200;5.792;2022-11-15T09:04:40;10.50;99.90
53310;DHT22;39197;53.200;5.792;2022-11-15T09:07:07;10.50;99.90
53310;DHT22;39197;53.200;5.792;2022-11-15T09:09:33;10.50;99.90
53310;DHT22;39197;53.200;5.792;2022-11-15T09:11:58;10.50;99.90
53310;DHT22;39197;53.200;5.792;2022-11-15T09:14:24;10.50;99.90
53310;DHT22;39197;53.200;5.792;2022-11-15T09:16:49;10.60;99.90
53310;DHT22;39197;53.200;5.792;2022-11-15T09:19:15;10.60;99.90
53310;DHT22;39197;53.200;5.792;2022-11-15T09:21:41;10.60;99.90
53310;DHT22;39197;53.200;5.792;2022-11-15T09:24:06;10.60;99.90
53310;DHT22;39197;53.200;5.792;2022-11-15T09:26:32;10.70;99.90
53310;DHT22;39197;53.200;5.792;2022-11-15T09:28:58;10.80;99.90
53310;DHT22;39197;53.200;5.792;2022-11-15T09:31:23;10.80;99.90
53310;DHT22;39197;53.200;5.792;2022-11-15T09:33:49;10.90;99.90
53310;DHT22;39197;53.200;5.792;2022-11-15T09:36:15;10.90;99.90
53310;DHT22;39197;53.200;5.792;2022-11-15T09:38:42;10.90;99.90
53310;DHT22;39197;53.200;5.792;2022-11-15T09:49:25;10.90;99.90
53310;DHT22;39197;53.200;5.792;2022-11-15T09:51:53;10.90;99.90
53310;DHT22;39197;53.200;5.792;2022-11-15T09:54:36;10.80;99.90
53310;DHT22;39197;53.200;5.792;2022-11-15T09:57:31;10.90;99.90
53310;DHT22;39197;53.200;5.792;2022-11-15T10:00:24;10.90;99.90
53310;DHT22;39197;53.200;5.792;2022-11-15T10:03:15;10.90;99.90
53310;DHT22;39197;53.200;5.792;2022-11-15T10:05:50;10.90;99.90
53310;DHT22;39197;53.200;5.792;2022-11-15T10:11:10;10.90;99.90
53310;DHT22;39197;53.200;5.792;2022-11-15T10:13:40;10.90;99.90
53310;DHT22;39197;53.200;5.792;2022-11-15T10:19:32;11.00;99.90
53310;DHT22;39197;53.200;5.792;2022-11-15T10:24:48;11.10;99.90
53310;DHT22;39197;53.200;5.792;2022-11-15T10:27:16;11.20;99.90
53310;DHT22;39197;53.200;5.792;2022-11-15T10:29:49;11.20;99.90
53310;DHT22;39197;53.200;5.792;2022-11-15T10:32:20;11.30;99.90
53310;DHT22;39197;53.200;5.792;2022-11-15T10:34:47;11.30;99.90
53310;DHT22;39197;53.200;5.792;2022-11-15T10:37:13;11.30;99.90
53310;DHT22;39197;53.200;5.792;2022-11-15T10:39:39;11.30;99.90
53310;DHT22;39197;53.200;5.792;2022-11-15T10:42:27;11.40;99.90
53310;DHT22;39197;53.200;5.792;2022-11-15T10:44:54;11.40;99.90
53310;DHT22;39197;53.200;5.792;2022-11-15T10:47:27;11.50;99.90
53310;DHT22;39197;53.200;5.792;2022-11-15T10:49:58;11.50;99.90
53310;DHT22;39197;53.200;5.792;2022-11-15T10:52:24;11.50;99.90
53310;DHT22;39197;53.200;5.792;2022-11-15T10:57:22;11.50;99.90
53310;DHT22;39197;53.200;5.792;2022-11-15T10:59:52;11.50;99.90
53310;DHT22;39197;53.200;5.792;2022-11-15T11:02:31;11.50;99.90
53310;DHT22;39197;53.200;5.792;2022-11-15T11:04:57;11.50;99.90
53310;DHT22;39197;53.200;5.792;2022-11-15T11:07:26;11.50;99.90
53310;DHT22;39197;53.200;5.792;2022-11-15T11:10:25;11.60;99.90
53310;DHT22;39197;53.200;5.792;2022-11-15T11:12:50;11.60;99.90
53310;DHT22;39197;53.200;5.792;2022-11-15T11:15:17;11.60;99.90
53310;DHT22;39197;53.200;5.792;2022-11-15T11:31:47;11.90;99.90
53310;DHT22;39197;53.200;5.792;2022-11-15T11:34:19;11.90;99.90
53310;DHT22;39197;53.200;5.792;2022-11-15T11:42:59;12.00;99.90
53310;DHT22;39197;53.200;5.792;2022-11-15T11:48:41;12.00;99.90
53310;DHT22;39197;53.200;5.792;2022-11-15T11:56:33;12.00;99.90
53310;DHT22;39197;53.200;5.792;2022-11-15T11:59:21;12.10;99.90
53310;DHT22;39197;53.200;5.792;2022-11-15T12:01:51;12.20;99.90
53310;DHT22;39197;53.200;5.792;2022-11-15T12:04:30;12.30;99.90
53310;DHT22;39197;53.200;5.792;2022-11-15T12:07:24;12.40;99.90
53310;DHT22;39197;53.200;5.792;2022-11-15T12:10:25;12.70;99.90
53310;DHT22;39197;53.200;5.792;2022-11-15T12:12:52;13.00;99.90
53310;DHT22;39197;53.200;5.792;2022-11-15T12:15:24;13.10;99.90
53310;DHT22;39197;53.200;5.792;2022-11-15T12:17:51;13.20;99.90
53310;DHT22;39197;53.200;5.792;2022-11-15T12:20:57;13.10;99.90
53310;DHT22;39197;53.200;5.792;2022-11-15T12:23:27;13.00;99.90
53310;DHT22;39197;53.200;5.792;2022-11-15T12:26:28;13.00;99.90
53310;DHT22;39197;53.200;5.792;2022-11-15T12:29:23;13.10;99.90
53310;DHT22;39197;53.200;5.792;2022-11-15T12:31:52;13.20;99.90
53310;DHT22;39197;53.200;5.792;2022-11-15T12:36:48;13.20;99.90
53310;DHT22;39197;53.200;5.792;2022-11-15T12:39:15;13.10;99.90
53310;DHT22;39197;53.200;5.792;2022-11-15T12:47:23;13.10;99.90
53310;DHT22;39197;53.200;5.792;2022-11-15T12:49:49;13.10;99.90
53310;DHT22;39197;53.200;5.792;2022-11-15T12:52:16;13.10;99.90
53310;DHT22;39197;53.200;5.792;2022-11-15T13:02:30;13.00;99.90
53310;DHT22;39197;53.200;5.792;2022-11-15T13:17:50;13.70;99.90
53310;DHT22;39197;53.200;5.792;2022-11-15T13:20:29;14.00;99.90
53310;DHT22;39197;53.200;5.792;2022-11-15T13:23:13;14.00;99.90
53310;DHT22;39197;53.200;5.792;2022-11-15T13:30:54;14.30;99.90
53310;DHT22;39197;53.200;5.792;2022-11-15T13:33:39;14.30;99.90
53310;DHT22;39197;53.200;5.792;2022-11-15T13:36:20;14.20;99.90
53310;DHT22;39197;53.200;5.792;2022-11-15T13:38:54;14.10;99.90
53310;DHT22;39197;53.200;5.792;2022-11-15T13:41:21;14.00;99.90
53310;DHT22;39197;53.200;5.792;2022-11-15T13:43:49;14.00;99.90
53310;DHT22;39197;53.200;5.792;2022-11-15T13:46:28;14.00;99.90
53310;DHT22;39197;53.200;5.792;2022-11-15T13:49:00;14.00;99.90
53310;DHT22;39197;53.200;5.792;2022-11-15T13:51:39;14.10;99.90
53310;DHT22;39197;53.200;5.792;2022-11-15T13:57:03;14.10;99.90
53310;DHT22;39197;53.200;5.792;2022-11-15T13:59:36;13.90;99.90
53310;DHT22;39197;53.200;5.792;2022-11-15T14:02:14;13.70;99.90
53310;DHT22;39197;53.200;5.792;2022-11-15T14:04:50;13.50;99.90
53310;DHT22;39197;53.200;5.792;2022-11-15T14:07:23;13.40;99.90
53310;DHT22;39197;53.200;5.792;2022-11-15T14:09:49;13.20;99.90
53310;DHT22;39197;53.200;5.792;2022-11-15T14:12:28;13.00;99.90
53310;DHT22;39197;53.200;5.792;2022-11-15T14:14:54;12.80;99.90
53310;DHT22;39197;53.200;5.792;2022-11-15T14:17:40;12.70;99.90
53310;DHT22;39197;53.200;5.792;2022-11-15T14:22:55;12.40;99.90
53310;DHT22;39197;53.200;5.792;2022-11-15T14:25:39;12.40;99.90
53310;DHT22;39197;53.200;5.792;2022-11-15T14:28:13;12.30;99.90
53310;DHT22;39197;53.200;5.792;2022-11-15T14:30:40;12.20;99.90
53310;DHT22;39197;53.200;5.792;2022-11-15T14:33:27;12.10;99.90
53310;DHT22;39197;53.200;5.792;2022-11-15T14:35:59;12.00;99.90
53310;DHT22;39197;53.200;5.792;2022-11-15T14:38:27;11.90;99.90
53310;DHT22;39197;53.200;5.792;2022-11-15T14:40:54;11.90;99.90
53310;DHT22;39197;53.200;5.792;2022-11-15T14:43:21;11.80;99.90
53310;DHT22;39197;53.200;5.792;2022-11-15T14:45:47;11.70;99.90
53310;DHT22;39197;53.200;5.792;2022-11-15T14:48:12;11.70;99.90
53310;DHT22;39197;53.200;5.792;2022-11-15T14:50:38;11.60;99.90
53310;DHT22;39197;53.200;5.792;2022-11-15T14:53:04;11.60;99.90
53310;DHT22;39197;53.200;5.792;2022-11-15T14:55:32;11.50;99.90
53310;DHT22;39197;53.200;5.792;2022-11-15T14:58:01;11.40;99.90
53310;DHT22;39197;53.200;5.792;2022-11-15T15:00:31;11.40;99.90
53310;DHT22;39197;53.200;5.792;2022-11-15T15:02:57;11.30;99.90
53310;DHT22;39197;53.200;5.792;2022-11-15T15:05:25;11.20;99.90
53310;DHT22;39197;53.200;5.792;2022-11-15T15:07:51;11.20;99.90
53310;DHT22;39197;53.200;5.792;2022-11-15T15:10:19;11.20;99.90
53310;DHT22;39197;53.200;5.792;2022-11-15T15:12:45;11.10;99.90
53310;DHT22;39197;53.200;5.792;2022-11-15T15:15:16;11.10;99.90
53310;DHT22;39197;53.200;5.792;2022-11-15T15:17:43;11.00;99.90
53310;DHT22;39197;53.200;5.792;2022-11-15T15:20:10;11.00;99.90
53310;DHT22;39197;53.200;5.792;2022-11-15T15:22:36;10.90;99.90
53310;DHT22;39197;53.200;5.792;2022-11-15T15:25:02;10.90;99.90
53310;DHT22;39197;53.200;5.792;2022-11-15T15:27:29;10.90;99.90
53310;DHT22;39197;53.200;5.792;2022-11-15T15:29:55;10.80;99.90
53310;DHT22;39197;53.200;5.792;2022-11-15T15:32:20;10.80;99.90
53310;DHT22;39197;53.200;5.792;2022-11-15T15:34:46;10.80;99.90
53310;DHT22;39197;53.200;5.792;2022-11-15T15:37:25;10.80;99.90
53310;DHT22;39197;53.200;5.792;2022-11-15T15:39:52;10.80;99.90
53310;DHT22;39197;53.200;5.792;2022-11-15T15:42:19;10.70;99.90
53310;DHT22;39197;53.200;5.792;2022-11-15T15:44:45;10.70;99.90
53310;DHT22;39197;53.200;5.792;2022-11-15T15:47:13;10.70;99.90
53310;DHT22;39197;53.200;5.792;2022-11-15T15:49:40;10.70;99.90
53310;DHT22;39197;53.200;5.792;2022-11-15T15:52:05;10.60;99.90
53310;DHT22;39197;53.200;5.792;2022-11-15T15:54:31;10.60;99.90
53310;DHT22;39197;53.200;5.792;2022-11-15T15:56:56;10.60;99.90
53310;DHT22;39197;53.200;5.792;2022-11-15T15:59:22;10.60;99.90
53310;DHT22;39197;53.200;5.792;2022-11-15T16:01:47;10.60;99.90
53310;DHT22;39197;53.200;5.792;2022-11-15T16:04:13;10.50;99.90
53310;DHT22;39197;53.200;5.792;2022-11-15T16:06:40;10.60;99.90
53310;DHT22;39197;53.200;5.792;2022-11-15T16:09:16;10.60;99.90
53310;DHT22;39197;53.200;5.792;2022-11-15T16:11:43;10.50;99.90
53310;DHT22;39197;53.200;5.792;2022-11-15T16:14:10;10.60;99.90
53310;DHT22;39197;53.200;5.792;2022-11-15T16:16:36;10.60;99.90
53310;DHT22;39197;53.200;5.792;2022-11-15T16:19:03;10.60;99.90
53310;DHT22;39197;53.200;5.792;2022-11-15T16:21:29;10.60;99.90
53310;DHT22;39197;53.200;5.792;2022-11-15T16:23:54;10.70;99.90
53310;DHT22;39197;53.200;5.792;2022-11-15T16:26:26;10.60;99.90
53310;DHT22;39197;53.200;5.792;2022-11-15T16:28:53;10.70;99.90
53310;DHT22;39197;53.200;5.792;2022-11-15T16:31:18;10.80;99.90
53310;DHT22;39197;53.200;5.792;2022-11-15T16:33:47;10.80;99.90
53310;DHT22;39197;53.200;5.792;2022-11-15T16:36:24;10.80;99.90
53310;DHT22;39197;53.200;5.792;2022-11-15T16:38:50;10.80;99.90
53310;DHT22;39197;53.200;5.792;2022-11-15T16:41:17;10.80;99.90
53310;DHT22;39197;53.200;5.792;2022-11-15T16:43:47;10.90;99.90
53310;DHT22;39197;53.200;5.792;2022-11-15T16:46:16;10.90;99.90
53310;DHT22;39197;53.200;5.792;2022-11-15T16:48:43;10.90;99.90
53310;DHT22;39197;53.200;5.792;2022-11-15T16:51:09;10.90;99.90
53310;DHT22;39197;53.200;5.792;2022-11-15T16:53:35;10.90;99.90
53310;DHT22;39197;53.200;5.792;2022-11-15T16:56:01;11.00;99.90
53310;DHT22;39197;53.200;5.792;2022-11-15T16:58:26;11.00;99.90
53310;DHT22;39197;53.200;5.792;2022-11-15T17:00:53;11.00;99.90
53310;DHT22;39197;53.200;5.792;2022-11-15T17:03:20;11.00;99.90
53310;DHT22;39197;53.200;5.792;2022-11-15T17:05:46;11.10;99.90
53310;DHT22;39197;53.200;5.792;2022-11-15T17:08:11;11.10;99.90
53310;DHT22;39197;53.200;5.792;2022-11-15T17:10:39;11.10;99.90
53310;DHT22;39197;53.200;5.792;2022-11-15T17:13:11;11.20;99.90
53310;DHT22;39197;53.200;5.792;2022-11-15T17:15:38;11.10;99.90
53310;DHT22;39197;53.200;5.792;2022-11-15T17:18:04;11.20;99.90
53310;DHT22;39197;53.200;5.792;2022-11-15T17:20:31;11.20;99.90
53310;DHT22;39197;53.200;5.792;2022-11-15T17:22:57;11.20;99.90
53310;DHT22;39197;53.200;5.792;2022-11-15T17:25:22;11.20;99.90
53310;DHT22;39197;53.200;5.792;2022-11-15T17:27:48;11.20;99.90
53310;DHT22;39197;53.200;5.792;2022-11-15T17:30:15;11.10;99.90
53310;DHT22;39197;53.200;5.792;2022-11-15T17:32:41;11.30;99.90
53310;DHT22;39197;53.200;5.792;2022-11-15T17:35:08;11.30;99.90
53310;DHT22;39197;53.200;5.792;2022-11-15T17:37:35;11.30;99.90
53310;DHT22;39197;53.200;5.792;2022-11-15T17:40:01;11.30;99.90
53310;DHT22;39197;53.200;5.792;2022-11-15T17:42:27;11.30;99.90